Time;durP1;ratioP1;P1;durP2;ratioP2;P2;SDS_P1;SDS_P2;PMS_P1;PMS_P2;Temp;Humidity;BMP_temperature;BMP_pressure;BME280_temperature;BME280_humidity;BME280_pressure;Samples;Min_cycle;Max_cycle;Signal;HPM_P1;HPM_P2
2023/08/24 00:01:40;;;;;;;15.70;3.53;;;;;;;;;;5054261;28;20477;-89
2023/08/24 00:04:06;;;;;;;6.70;3.58;;;;;;;;;;5051888;28;20032;-91
2023/08/24 00:06:32;;;;;;;6.40;3.22;;;;;;;;;;5047849;28;20028;-90
2023/08/24 00:08:59;;;;;;;7.85;3.45;;;;;;;;;;5066640;28;20372;-91
2023/08/24 00:11:25;;;;;;;7.45;3.80;;;;;;;;;;5065361;28;20092;-90
2023/08/24 00:13:52;;;;;;;3.78;3.22;;;;;;;;;;5047856;28;20437;-90
2023/08/24 00:16:19;;;;;;;7.53;3.58;;;;;;;;;;5060733;28;20474;-91
2023/08/24 00:18:45;;;;;;;12.68;3.40;;;;;;;;;;5063179;28;20020;-90
2023/08/24 00:21:11;;;;;;;13.18;4.03;;;;;;;;;;5050832;28;20031;-90
2023/08/24 00:23:38;;;;;;;7.60;4.25;;;;;;;;;;5055604;28;20028;-90
2023/08/24 00:26:04;;;;;;;12.07;3.90;;;;;;;;;;5068432;28;20159;-91
2023/08/24 00:28:30;;;;;;;8.00;3.80;;;;;;;;;;5051437;28;20501;-91
2023/08/24 00:30:56;;;;;;;5.53;3.75;;;;;;;;;;5057962;28;20076;-91
2023/08/24 00:33:22;;;;;;;4.75;3.30;;;;;;;;;;5062010;28;20120;-90
2023/08/24 00:35:48;;;;;;;8.07;3.90;;;;;;;;;;5045430;28;20029;-90
2023/08/24 00:38:15;;;;;;;7.68;3.60;;;;;;;;;;5064406;28;20060;-90
2023/08/24 00:40:43;;;;;;;8.45;4.07;;;;;;;;;;5065232;28;20109;-89
2023/08/24 00:43:09;;;;;;;4.57;3.40;;;;;;;;;;5068551;28;20509;-90
2023/08/24 00:45:36;;;;;;;13.80;4.15;;;;;;;;;;5049778;28;20380;-91
2023/08/24 00:48:02;;;;;;;7.13;3.60;;;;;;;;;;5048876;28;20063;-91
2023/08/24 00:50:28;;;;;;;7.72;3.40;;;;;;;;;;5044725;28;20017;-89
2023/08/24 00:52:54;;;;;;;12.13;4.00;;;;;;;;;;5044096;28;20123;-90
2023/08/24 00:55:21;;;;;;;9.05;3.97;;;;;;;;;;5048637;28;20020;-90
2023/08/24 00:57:48;;;;;;;5.88;3.80;;;;;;;;;;5045885;28;20029;-92
2023/08/24 01:00:14;;;;;;;6.65;3.67;;;;;;;;;;5045307;28;20072;-91
2023/08/24 01:02:40;;;;;;;10.82;3.70;;;;;;;;;;5062995;28;20092;-91
2023/08/24 01:05:06;;;;;;;8.57;3.95;;;;;;;;;;5050533;28;20103;-90
2023/08/24 01:07:37;;;;;;;6.93;4.00;;;;;;;;;;5047065;28;20636;-91
2023/08/24 01:10:06;;;;;;;6.65;4.13;;;;;;;;;;5063591;28;20108;-91
2023/08/24 01:12:39;;;;;;;6.60;3.92;;;;;;;;;;5065509;28;20024;-91
2023/08/24 01:15:28;;;;;;;5.40;3.33;;;;;;;;;;5067349;28;20087;-91
2023/08/24 01:17:57;;;;;;;7.05;3.92;;;;;;;;;;5019261;28;20504;-91
2023/08/24 01:20:23;;;;;;;8.25;4.63;;;;;;;;;;5061399;28;20103;-91
2023/08/24 01:23:04;;;;;;;7.63;4.30;;;;;;;;;;5046180;28;20021;-90
2023/08/24 01:25:49;;;;;;;5.97;3.72;;;;;;;;;;5070759;28;20031;-91
2023/08/24 01:28:15;;;;;;;6.45;4.05;;;;;;;;;;5047146;28;20017;-91
2023/08/24 01:30:41;;;;;;;6.38;3.75;;;;;;;;;;5063682;28;20461;-91
2023/08/24 01:33:11;;;;;;;12.02;4.07;;;;;;;;;;5057723;28;20033;-91
2023/08/24 01:35:38;;;;;;;8.30;4.00;;;;;;;;;;5047498;28;20099;-91
2023/08/24 01:38:06;;;;;;;6.50;3.90;;;;;;;;;;5047995;28;20100;-89
2023/08/24 01:40:40;;;;;;;7.65;3.90;;;;;;;;;;5060885;28;20021;-89
2023/08/24 01:43:08;;;;;;;8.02;3.92;;;;;;;;;;5052622;28;20037;-91
2023/08/24 01:45:34;;;;;;;8.25;4.57;;;;;;;;;;5049066;28;20027;-92
2023/08/24 01:48:02;;;;;;;5.43;4.10;;;;;;;;;;5068683;28;20035;-90
2023/08/24 01:50:29;;;;;;;7.45;4.07;;;;;;;;;;5066779;28;20378;-91
2023/08/24 01:52:55;;;;;;;10.18;4.50;;;;;;;;;;5046729;28;20028;-92
2023/08/24 01:55:22;;;;;;;5.15;4.15;;;;;;;;;;5063434;28;20036;-91
2023/08/24 01:57:49;;;;;;;6.30;4.35;;;;;;;;;;5048873;28;20032;-91
2023/08/24 02:00:15;;;;;;;9.43;4.32;;;;;;;;;;5061963;28;20036;-91
2023/08/24 02:02:42;;;;;;;6.97;4.63;;;;;;;;;;5072611;28;20024;-91
2023/08/24 02:05:08;;;;;;;9.00;4.70;;;;;;;;;;5056313;28;20065;-91
2023/08/24 02:07:34;;;;;;;10.07;4.72;;;;;;;;;;5052025;28;20028;-90
2023/08/24 02:10:00;;;;;;;9.65;4.70;;;;;;;;;;5053663;28;20025;-91
2023/08/24 02:12:26;;;;;;;7.95;3.80;;;;;;;;;;5058312;28;20480;-91
2023/08/24 02:14:52;;;;;;;9.30;4.30;;;;;;;;;;5065177;28;20038;-91
2023/08/24 02:17:18;;;;;;;7.80;4.15;;;;;;;;;;5051736;28;20016;-91
2023/08/24 02:19:44;;;;;;;7.90;3.90;;;;;;;;;;5066828;28;20031;-91
2023/08/24 02:22:10;;;;;;;11.65;4.20;;;;;;;;;;5049362;28;20625;-91
2023/08/24 02:24:36;;;;;;;6.43;4.28;;;;;;;;;;5065647;28;20032;-91
2023/08/24 02:27:02;;;;;;;8.77;4.35;;;;;;;;;;5068983;28;20026;-91
2023/08/24 02:29:28;;;;;;;7.53;4.50;;;;;;;;;;5067682;28;20051;-91
2023/08/24 02:31:54;;;;;;;10.93;3.88;;;;;;;;;;5045939;28;20017;-92
2023/08/24 02:34:20;;;;;;;7.80;4.68;;;;;;;;;;5064163;28;20033;-91
2023/08/24 02:36:46;;;;;;;17.13;4.05;;;;;;;;;;5052735;28;20017;-91
2023/08/24 02:39:13;;;;;;;7.45;3.78;;;;;;;;;;5048485;28;20020;-91
2023/08/24 02:41:39;;;;;;;7.80;4.03;;;;;;;;;;5074020;28;20457;-90
2023/08/24 02:44:05;;;;;;;7.55;4.05;;;;;;;;;;5066368;28;20508;-91
2023/08/24 02:46:31;;;;;;;6.47;3.95;;;;;;;;;;5051942;28;20461;-92
2023/08/24 02:48:57;;;;;;;8.68;4.07;;;;;;;;;;5056945;28;20024;-92
2023/08/24 02:51:23;;;;;;;7.03;4.78;;;;;;;;;;5067468;28;20029;-92
2023/08/24 02:53:49;;;;;;;11.15;4.82;;;;;;;;;;5056792;28;20020;-93
2023/08/24 02:56:16;;;;;;;5.60;4.25;;;;;;;;;;5051712;28;20027;-92
2023/08/24 02:58:42;;;;;;;7.38;4.93;;;;;;;;;;5047840;28;20112;-93
2023/08/24 03:01:08;;;;;;;9.63;5.05;;;;;;;;;;5052555;28;20029;-92
2023/08/24 03:03:34;;;;;;;8.05;5.07;;;;;;;;;;5071096;28;20071;-91
2023/08/24 03:06:02;;;;;;;6.00;4.55;;;;;;;;;;5055252;28;20095;-92
2023/08/24 03:08:28;;;;;;;13.27;4.75;;;;;;;;;;5068521;28;20457;-91
2023/08/24 03:10:54;;;;;;;8.73;4.57;;;;;;;;;;5050905;28;20024;-91
2023/08/24 03:13:20;;;;;;;16.40;4.40;;;;;;;;;;5048192;28;20043;-92
2023/08/24 03:15:46;;;;;;;12.07;4.72;;;;;;;;;;5059830;28;20539;-92
2023/08/24 03:18:13;;;;;;;8.02;4.72;;;;;;;;;;5065555;28;20060;-88
2023/08/24 03:20:39;;;;;;;10.20;5.03;;;;;;;;;;5051649;28;20492;-92
2023/08/24 03:23:06;;;;;;;6.30;4.53;;;;;;;;;;5060006;28;20539;-89
2023/08/24 03:25:35;;;;;;;7.90;4.70;;;;;;;;;;5067459;28;20584;-91
2023/08/24 03:28:02;;;;;;;11.75;4.82;;;;;;;;;;5056179;28;20047;-91
2023/08/24 03:30:28;;;;;;;12.00;4.82;;;;;;;;;;5054410;28;20025;-91
2023/08/24 03:32:54;;;;;;;11.77;4.90;;;;;;;;;;5064321;28;20025;-92
2023/08/24 03:35:20;;;;;;;7.50;4.55;;;;;;;;;;5059911;28;20037;-91
2023/08/24 03:37:46;;;;;;;6.20;4.78;;;;;;;;;;5047251;28;20075;-89
2023/08/24 03:40:13;;;;;;;6.63;3.97;;;;;;;;;;5052845;28;20032;-91
2023/08/24 03:42:39;;;;;;;10.05;4.22;;;;;;;;;;5067267;28;20021;-91
2023/08/24 03:45:05;;;;;;;6.50;4.22;;;;;;;;;;5070040;28;20020;-92
2023/08/24 03:47:31;;;;;;;5.38;3.78;;;;;;;;;;5058796;28;20025;-91
2023/08/24 03:49:57;;;;;;;12.40;5.72;;;;;;;;;;5047297;28;20017;-92
2023/08/24 03:52:23;;;;;;;13.48;4.80;;;;;;;;;;5046725;28;20037;-91
2023/08/24 03:54:49;;;;;;;12.68;4.93;;;;;;;;;;5048245;28;20147;-92
2023/08/24 03:57:15;;;;;;;8.93;5.03;;;;;;;;;;5070456;28;20095;-92
2023/08/24 03:59:41;;;;;;;7.50;4.13;;;;;;;;;;5051677;28;20021;-91
2023/08/24 04:02:07;;;;;;;6.68;4.30;;;;;;;;;;5065028;28;20048;-91
2023/08/24 04:04:33;;;;;;;11.07;4.50;;;;;;;;;;5051265;28;20100;-91
2023/08/24 04:07:00;;;;;;;8.38;4.13;;;;;;;;;;5065285;28;20029;-89
2023/08/24 04:09:26;;;;;;;7.15;4.15;;;;;;;;;;5049654;28;20023;-92
2023/08/24 04:11:52;;;;;;;8.82;4.40;;;;;;;;;;5044248;28;20025;-91
2023/08/24 04:14:18;;;;;;;7.35;4.82;;;;;;;;;;5067709;28;20047;-89
2023/08/24 04:16:44;;;;;;;7.03;4.50;;;;;;;;;;5059026;28;20489;-90
2023/08/24 04:19:10;;;;;;;14.90;4.53;;;;;;;;;;5059258;28;20095;-90
2023/08/24 04:21:36;;;;;;;11.60;4.13;;;;;;;;;;5064491;28;20024;-90
2023/08/24 04:24:02;;;;;;;6.40;4.32;;;;;;;;;;5042039;28;20013;-89
2023/08/24 04:26:28;;;;;;;5.95;3.85;;;;;;;;;;5068175;28;20021;-90
2023/08/24 04:28:54;;;;;;;7.35;4.18;;;;;;;;;;5067443;28;20021;-90
2023/08/24 04:31:20;;;;;;;6.35;3.97;;;;;;;;;;5044124;28;20056;-90
2023/08/24 04:33:46;;;;;;;8.88;4.63;;;;;;;;;;5064329;28;20385;-89
2023/08/24 04:36:12;;;;;;;5.65;3.95;;;;;;;;;;5063079;28;20036;-88
2023/08/24 04:38:38;;;;;;;10.32;4.18;;;;;;;;;;5056573;28;20079;-90
2023/08/24 04:41:07;;;;;;;8.93;4.32;;;;;;;;;;5066475;28;20036;-92
2023/08/24 04:43:33;;;;;;;9.15;4.85;;;;;;;;;;5054008;28;20430;-90
2023/08/24 04:45:59;;;;;;;6.72;4.40;;;;;;;;;;5059345;28;20095;-90
2023/08/24 04:48:32;;;;;;;6.03;4.60;;;;;;;;;;5067278;28;20147;-91
2023/08/24 04:50:58;;;;;;;18.52;4.93;;;;;;;;;;5044715;28;20029;-90
2023/08/24 04:53:25;;;;;;;9.23;3.85;;;;;;;;;;5043630;28;20033;-90
2023/08/24 04:55:50;;;;;;;6.78;3.97;;;;;;;;;;5063372;28;20017;-89
2023/08/24 04:58:16;;;;;;;6.18;4.65;;;;;;;;;;5063388;28;20040;-89
2023/08/24 05:00:42;;;;;;;7.95;4.20;;;;;;;;;;5056138;28;20023;-89
2023/08/24 05:03:08;;;;;;;10.63;4.65;;;;;;;;;;5065518;28;20075;-90
2023/08/24 05:05:35;;;;;;;7.78;4.25;;;;;;;;;;5052550;28;20029;-89
2023/08/24 05:08:01;;;;;;;7.72;4.50;;;;;;;;;;5063609;28;20036;-89
2023/08/24 05:10:32;;;;;;;8.63;4.40;;;;;;;;;;5044335;28;20021;-90
2023/08/24 05:12:58;;;;;;;7.55;4.35;;;;;;;;;;5069449;28;20048;-90
2023/08/24 05:15:24;;;;;;;10.07;4.82;;;;;;;;;;5064338;28;20482;-89
2023/08/24 05:17:53;;;;;;;12.15;4.65;;;;;;;;;;5069721;28;20623;-88
2023/08/24 05:20:19;;;;;;;9.00;4.93;;;;;;;;;;5055117;28;20032;-89
2023/08/24 05:22:45;;;;;;;10.93;4.38;;;;;;;;;;5067670;28;20021;-89
2023/08/24 05:25:11;;;;;;;8.65;4.40;;;;;;;;;;5060242;28;20092;-90
2023/08/24 05:27:37;;;;;;;15.48;4.47;;;;;;;;;;5064873;28;20024;-90
2023/08/24 05:30:05;;;;;;;9.35;4.82;;;;;;;;;;5056388;28;20025;-89
2023/08/24 05:32:31;;;;;;;11.02;4.80;;;;;;;;;;5066302;28;20024;-90
2023/08/24 05:34:57;;;;;;;6.90;4.40;;;;;;;;;;5060081;28;20029;-90
2023/08/24 05:37:24;;;;;;;8.50;4.65;;;;;;;;;;5068843;28;20473;-90
2023/08/24 05:39:50;;;;;;;8.68;4.57;;;;;;;;;;5062114;28;20028;-90
2023/08/24 05:42:16;;;;;;;9.93;4.97;;;;;;;;;;5063783;28;20025;-90
2023/08/24 05:44:42;;;;;;;6.97;4.85;;;;;;;;;;5068047;28;20052;-90
2023/08/24 05:47:08;;;;;;;8.65;4.20;;;;;;;;;;5062488;28;20035;-90
2023/08/24 05:49:34;;;;;;;4.72;3.97;;;;;;;;;;5049680;28;20017;-80
2023/08/24 05:52:00;;;;;;;7.28;4.25;;;;;;;;;;5065975;28;20025;-80
2023/08/24 05:54:25;;;;;;;9.35;3.90;;;;;;;;;;5056225;28;20037;-80
2023/08/24 05:56:51;;;;;;;7.60;4.65;;;;;;;;;;5065590;28;20021;-81
2023/08/24 05:59:17;;;;;;;11.00;4.45;;;;;;;;;;5045089;28;20029;-79
2023/08/24 06:01:43;;;;;;;17.23;4.32;;;;;;;;;;5049768;28;20116;-80
2023/08/24 06:04:09;;;;;;;7.20;4.65;;;;;;;;;;5066705;28;20436;-80
2023/08/24 06:06:36;;;;;;;6.65;4.25;;;;;;;;;;5062072;28;20111;-80
2023/08/24 06:09:05;;;;;;;8.43;4.60;;;;;;;;;;5055751;28;20021;-79
2023/08/24 06:11:31;;;;;;;8.48;4.85;;;;;;;;;;5066127;28;20118;-80
2023/08/24 06:13:57;;;;;;;8.80;4.22;;;;;;;;;;5041855;28;20020;-80
2023/08/24 06:16:23;;;;;;;9.18;4.68;;;;;;;;;;5063380;28;20037;-80
2023/08/24 06:18:49;;;;;;;8.90;4.20;;;;;;;;;;5067984;28;20035;-79
2023/08/24 06:21:16;;;;;;;9.02;4.57;;;;;;;;;;5063900;28;20073;-80
2023/08/24 06:23:41;;;;;;;9.25;5.32;;;;;;;;;;5061858;28;20020;-80
2023/08/24 06:26:07;;;;;;;11.93;4.88;;;;;;;;;;5065122;28;20044;-80
2023/08/24 06:28:33;;;;;;;8.25;4.75;;;;;;;;;;5057163;28;20033;-79
2023/08/24 06:31:00;;;;;;;11.82;4.70;;;;;;;;;;5064885;28;20096;-79
2023/08/24 06:33:30;;;;;;;7.03;4.57;;;;;;;;;;5063469;28;20032;-80
2023/08/24 06:35:56;;;;;;;14.38;5.32;;;;;;;;;;5061528;28;20025;-81
2023/08/24 06:38:22;;;;;;;7.28;4.45;;;;;;;;;;5062866;28;20085;-80
2023/08/24 06:40:48;;;;;;;12.48;5.13;;;;;;;;;;5063036;28;20017;-79
2023/08/24 06:43:15;;;;;;;9.18;5.05;;;;;;;;;;5056307;28;20447;-79
2023/08/24 06:45:41;;;;;;;10.90;5.20;;;;;;;;;;5062633;28;20473;-80
2023/08/24 06:48:07;;;;;;;10.45;6.07;;;;;;;;;;5065914;28;20574;-80
2023/08/24 06:50:36;;;;;;;8.45;5.95;;;;;;;;;;5066330;28;20024;-81
2023/08/24 06:53:03;;;;;;;11.80;6.38;;;;;;;;;;5064396;28;20060;-81
2023/08/24 06:55:29;;;;;;;16.30;6.57;;;;;;;;;;5063602;28;20029;-81
2023/08/24 06:57:55;;;;;;;12.52;5.90;;;;;;;;;;5062311;28;20100;-81
2023/08/24 07:00:21;;;;;;;13.80;6.35;;;;;;;;;;5063143;28;20120;-81
2023/08/24 07:02:47;;;;;;;11.57;5.88;;;;;;;;;;5059828;28;20473;-82
2023/08/24 07:05:14;;;;;;;10.73;5.47;;;;;;;;;;5060397;28;20063;-81
2023/08/24 07:07:43;;;;;;;12.63;5.90;;;;;;;;;;5065957;28;20070;-83
2023/08/24 07:10:09;;;;;;;13.25;6.35;;;;;;;;;;5050268;28;20556;-80
2023/08/24 07:12:35;;;;;;;15.13;5.63;;;;;;;;;;5060292;28;20489;-81
2023/08/24 07:15:01;;;;;;;14.98;6.00;;;;;;;;;;5061466;28;20031;-82
2023/08/24 07:17:27;;;;;;;10.85;6.72;;;;;;;;;;5054983;28;20025;-82
2023/08/24 07:19:53;;;;;;;11.32;6.75;;;;;;;;;;5062299;28;20514;-82
2023/08/24 07:22:20;;;;;;;14.32;6.75;;;;;;;;;;5065775;28;20430;-81
2023/08/24 07:24:46;;;;;;;15.63;7.70;;;;;;;;;;5066865;28;20474;-82
2023/08/24 07:27:12;;;;;;;13.35;6.97;;;;;;;;;;5064776;28;20366;-81
2023/08/24 07:29:38;;;;;;;10.25;6.55;;;;;;;;;;5057103;28;20074;-82
2023/08/24 07:32:04;;;;;;;15.45;7.63;;;;;;;;;;5061091;28;20028;-82
2023/08/24 07:34:30;;;;;;;12.90;7.53;;;;;;;;;;5063855;28;20115;-81
2023/08/24 07:36:56;;;;;;;18.23;8.57;;;;;;;;;;5062431;28;20111;-82
2023/08/24 07:39:22;;;;;;;16.10;7.45;;;;;;;;;;5064807;28;20032;-82
2023/08/24 07:41:48;;;;;;;13.88;8.02;;;;;;;;;;5051252;28;20374;-81
2023/08/24 07:44:14;;;;;;;12.07;7.07;;;;;;;;;;5063356;28;20148;-82
2023/08/24 07:46:40;;;;;;;11.43;7.45;;;;;;;;;;5060144;28;20654;-83
2023/08/24 07:49:06;;;;;;;11.70;6.82;;;;;;;;;;5062520;28;20104;-81
2023/08/24 07:51:33;;;;;;;20.52;8.13;;;;;;;;;;5042011;28;20024;-81
2023/08/24 07:53:59;;;;;;;12.82;7.30;;;;;;;;;;5064319;28;20035;-80
2023/08/24 07:56:25;;;;;;;10.63;7.10;;;;;;;;;;5059306;28;20033;-81
2023/08/24 07:58:51;;;;;;;11.07;6.82;;;;;;;;;;5059796;28;20074;-83
2023/08/24 08:01:17;;;;;;;15.50;7.30;;;;;;;;;;5066094;28;20653;-83
2023/08/24 08:03:43;;;;;;;16.35;7.57;;;;;;;;;;5057403;28;20079;-81
2023/08/24 08:06:09;;;;;;;14.52;6.30;;;;;;;;;;5068011;28;20477;-82
2023/08/24 08:08:35;;;;;;;13.75;7.35;;;;;;;;;;5064141;28;20071;-86
2023/08/24 08:11:02;;;;;;;14.38;6.53;;;;;;;;;;5067351;28;20549;-87
2023/08/24 08:13:31;;;;;;;15.27;6.80;;;;;;;;;;5072549;28;20051;-87
2023/08/24 08:16:03;;;;;;;14.00;7.80;;;;;;;;;;5054537;28;20020;-88
2023/08/24 08:18:29;;;;;;;11.57;6.97;;;;;;;;;;5066590;28;20060;-87
2023/08/24 08:20:55;;;;;;;14.68;7.25;;;;;;;;;;5067659;28;20070;-86
2023/08/24 08:23:21;;;;;;;13.00;6.65;;;;;;;;;;5045686;28;20024;-86
2023/08/24 08:25:47;;;;;;;11.98;6.68;;;;;;;;;;5046693;28;20540;-86
2023/08/24 08:28:13;;;;;;;9.48;6.78;;;;;;;;;;5067158;28;20099;-85
2023/08/24 08:30:39;;;;;;;11.80;6.60;;;;;;;;;;5042762;28;20029;-86
2023/08/24 08:33:05;;;;;;;14.23;6.85;;;;;;;;;;5057192;28;20021;-86
2023/08/24 08:35:31;;;;;;;12.23;7.47;;;;;;;;;;5046521;28;20099;-86
2023/08/24 08:37:57;;;;;;;14.23;6.95;;;;;;;;;;5047110;28;20164;-87
2023/08/24 08:40:28;;;;;;;14.52;7.45;;;;;;;;;;5048448;28;20023;-87
2023/08/24 08:42:56;;;;;;;11.13;6.35;;;;;;;;;;5068740;28;20035;-87
2023/08/24 08:45:25;;;;;;;13.55;7.32;;;;;;;;;;5059871;28;20429;-87
2023/08/24 08:47:51;;;;;;;12.13;7.20;;;;;;;;;;5061401;28;20029;-86
2023/08/24 08:50:18;;;;;;;11.32;7.70;;;;;;;;;;5044542;28;20087;-87
2023/08/24 08:52:44;;;;;;;14.13;7.13;;;;;;;;;;5059305;28;20033;-87
2023/08/24 08:55:11;;;;;;;12.13;7.70;;;;;;;;;;5065503;28;20032;-86
2023/08/24 08:57:37;;;;;;;12.30;7.22;;;;;;;;;;5045644;28;20473;-85
2023/08/24 09:00:04;;;;;;;19.77;7.20;;;;;;;;;;5067674;28;20027;-86
2023/08/24 09:02:31;;;;;;;10.65;7.50;;;;;;;;;;5066353;28;20028;-86
2023/08/24 09:04:57;;;;;;;11.52;6.00;;;;;;;;;;5047055;28;20017;-86
2023/08/24 09:07:23;;;;;;;10.77;7.25;;;;;;;;;;5061170;28;20083;-86
2023/08/24 09:09:50;;;;;;;12.18;7.40;;;;;;;;;;5060759;28;20466;-86
2023/08/24 09:12:19;;;;;;;12.55;7.65;;;;;;;;;;5057485;28;20039;-86
2023/08/24 09:14:45;;;;;;;13.20;7.87;;;;;;;;;;5044339;28;20036;-87
2023/08/24 09:17:11;;;;;;;11.98;6.63;;;;;;;;;;5061965;28;20095;-85
2023/08/24 09:19:38;;;;;;;13.95;6.75;;;;;;;;;;5059428;28;20424;-85
2023/08/24 09:22:05;;;;;;;16.10;7.72;;;;;;;;;;5061089;28;20480;-86
2023/08/24 09:24:32;;;;;;;11.02;7.10;;;;;;;;;;5047016;28;20025;-85
2023/08/24 09:26:58;;;;;;;13.30;7.22;;;;;;;;;;5063906;28;20557;-86
2023/08/24 09:29:24;;;;;;;18.02;7.25;;;;;;;;;;5051507;28;20063;-86
2023/08/24 09:31:53;;;;;;;13.70;7.15;;;;;;;;;;5058031;28;20040;-84
2023/08/24 09:34:20;;;;;;;11.55;6.65;;;;;;;;;;5047433;28;20091;-86
2023/08/24 09:36:46;;;;;;;21.88;7.15;;;;;;;;;;5062681;28;20032;-84
2023/08/24 09:39:13;;;;;;;13.23;7.15;;;;;;;;;;5061218;28;20037;-81
2023/08/24 09:41:39;;;;;;;16.20;6.95;;;;;;;;;;5063260;28;20020;-83
2023/08/24 09:44:08;;;;;;;11.55;6.18;;;;;;;;;;5048830;28;20035;-83
2023/08/24 09:46:38;;;;;;;16.38;6.60;;;;;;;;;;5066670;28;20476;-83
2023/08/24 09:49:08;;;;;;;11.57;7.28;;;;;;;;;;5058799;28;20075;-82
2023/08/24 09:51:35;;;;;;;14.25;6.93;;;;;;;;;;5064558;28;20024;-80
2023/08/24 09:54:02;;;;;;;17.42;7.25;;;;;;;;;;5067891;28;20530;-82
2023/08/24 09:56:29;;;;;;;9.02;6.00;;;;;;;;;;5059146;28;20017;-83
2023/08/24 09:58:55;;;;;;;8.57;5.45;;;;;;;;;;5061556;28;20029;-82
2023/08/24 10:01:22;;;;;;;12.63;6.32;;;;;;;;;;5069778;28;20035;-82
2023/08/24 10:03:52;;;;;;;13.75;6.10;;;;;;;;;;5067635;28;20519;-81
2023/08/24 10:06:20;;;;;;;8.98;5.90;;;;;;;;;;5069143;28;20028;-83
2023/08/24 10:08:49;;;;;;;11.52;6.78;;;;;;;;;;5061584;28;20032;-82
2023/08/24 10:11:18;;;;;;;13.73;7.28;;;;;;;;;;5065919;28;20128;-82
2023/08/24 10:13:50;;;;;;;22.70;6.97;;;;;;;;;;5066073;28;20028;-81
2023/08/24 10:16:18;;;;;;;12.77;5.80;;;;;;;;;;5063083;28;20429;-84
2023/08/24 10:18:44;;;;;;;15.70;6.90;;;;;;;;;;5066413;28;20108;-82
2023/08/24 10:21:10;;;;;;;12.60;6.25;;;;;;;;;;5064093;28;20025;-83
2023/08/24 10:23:36;;;;;;;17.75;7.38;;;;;;;;;;5069066;28;20039;-83
2023/08/24 10:26:04;;;;;;;15.40;6.32;;;;;;;;;;5065972;28;20025;-83
2023/08/24 10:28:30;;;;;;;11.88;6.95;;;;;;;;;;5066083;28;20036;-82
2023/08/24 10:30:58;;;;;;;14.38;6.85;;;;;;;;;;5063876;28;20029;-82
2023/08/24 10:33:25;;;;;;;10.55;6.45;;;;;;;;;;5059917;28;20495;-83
2023/08/24 10:35:51;;;;;;;13.25;6.38;;;;;;;;;;5064444;28;20027;-83
2023/08/24 10:38:27;;;;;;;10.45;5.43;;;;;;;;;;5066893;28;20016;-83
2023/08/24 10:40:53;;;;;;;17.45;5.60;;;;;;;;;;5064713;28;20100;-83
2023/08/24 10:43:20;;;;;;;11.88;7.45;;;;;;;;;;5059318;28;20029;-82
2023/08/24 10:45:59;;;;;;;18.77;6.65;;;;;;;;;;5063389;28;20032;-83
2023/08/24 10:48:28;;;;;;;18.75;6.90;;;;;;;;;;5062441;28;20497;-84
2023/08/24 10:51:21;;;;;;;9.40;6.55;;;;;;;;;;5062025;28;20051;-84
2023/08/24 10:53:48;;;;;;;13.30;6.20;;;;;;;;;;5055395;28;20053;-83
2023/08/24 10:56:15;;;;;;;16.10;5.97;;;;;;;;;;5063034;28;20033;-85
2023/08/24 10:58:42;;;;;;;11.30;6.28;;;;;;;;;;5062599;28;20036;-84
2023/08/24 11:01:08;;;;;;;15.63;6.60;;;;;;;;;;5064658;28;20055;-84
2023/08/24 11:03:34;;;;;;;11.40;5.97;;;;;;;;;;5059215;28;20402;-83
2023/08/24 11:06:00;;;;;;;11.88;7.30;;;;;;;;;;5062494;28;20029;-84
2023/08/24 11:08:46;;;;;;;21.20;6.95;;;;;;;;;;5067544;28;20087;-84
2023/08/24 11:11:22;;;;;;;12.13;6.75;;;;;;;;;;5048239;28;20084;-83
2023/08/24 11:14:07;;;;;;;8.15;6.15;;;;;;;;;;5067933;28;20051;-83
2023/08/24 11:16:39;;;;;;;13.98;5.47;;;;;;;;;;5064253;28;20025;-84
2023/08/24 11:19:06;;;;;;;12.00;6.32;;;;;;;;;;5067184;28;20106;-82
2023/08/24 11:21:34;;;;;;;12.35;5.88;;;;;;;;;;5048241;28;20020;-83
2023/08/24 11:24:01;;;;;;;11.98;6.82;;;;;;;;;;5059468;28;20628;-83
2023/08/24 11:26:27;;;;;;;14.30;5.72;;;;;;;;;;5046503;28;20021;-84
2023/08/24 11:28:57;;;;;;;12.25;6.43;;;;;;;;;;5062755;28;20112;-84
2023/08/24 11:31:23;;;;;;;11.77;5.78;;;;;;;;;;5060029;28;20020;-84
2023/08/24 11:33:55;;;;;;;11.75;5.82;;;;;;;;;;5064306;28;20053;-82
2023/08/24 11:36:21;;;;;;;13.23;5.75;;;;;;;;;;5064835;28;20445;-82
2023/08/24 11:38:47;;;;;;;20.83;5.93;;;;;;;;;;5062401;28;20024;-81
2023/08/24 11:41:13;;;;;;;8.05;5.38;;;;;;;;;;5053082;28;20072;-82
2023/08/24 11:43:47;;;;;;;9.95;5.60;;;;;;;;;;5066321;28;20365;-82
2023/08/24 11:46:17;;;;;;;8.57;5.65;;;;;;;;;;5064595;28;20016;-82
2023/08/24 11:48:45;;;;;;;16.50;5.10;;;;;;;;;;5062774;28;20032;-80
2023/08/24 11:51:12;;;;;;;9.25;5.90;;;;;;;;;;5044848;28;20059;-83
2023/08/24 11:53:41;;;;;;;10.57;6.05;;;;;;;;;;5063844;28;20043;-81
2023/08/24 11:56:10;;;;;;;23.83;5.72;;;;;;;;;;5065556;28;20017;-82
2023/08/24 11:58:38;;;;;;;12.20;5.45;;;;;;;;;;5043928;28;20044;-81
2023/08/24 12:01:04;;;;;;;8.35;4.80;;;;;;;;;;5063433;28;20016;-82
2023/08/24 12:03:31;;;;;;;9.60;6.50;;;;;;;;;;5063377;28;20021;-82
2023/08/24 12:06:01;;;;;;;11.27;5.75;;;;;;;;;;5052711;28;20020;-81
2023/08/24 12:08:26;;;;;;;;;;;;;;;;;;5064985;28;20028;-82
2023/08/24 12:10:53;;;;;;;9.82;5.78;;;;;;;;;;5062642;28;20273;-83
2023/08/24 12:13:19;;;;;;;11.50;5.53;;;;;;;;;;5060848;28;20095;-80
2023/08/24 12:15:47;;;;;;;16.83;6.22;;;;;;;;;;5062180;28;20104;-82
2023/08/24 12:18:13;;;;;;;10.52;5.40;;;;;;;;;;5067775;28;20028;-82
2023/08/24 12:20:40;;;;;;;11.52;5.47;;;;;;;;;;5064795;28;20025;-82
2023/08/24 12:23:07;;;;;;;8.45;5.45;;;;;;;;;;5049269;28;20028;-81
2023/08/24 12:25:37;;;;;;;14.00;5.95;;;;;;;;;;5056407;28;20613;-81
2023/08/24 12:28:12;;;;;;;14.00;5.45;;;;;;;;;;5051130;28;20026;-82
2023/08/24 12:30:51;;;;;;;7.85;4.80;;;;;;;;;;5050342;28;20508;-81
2023/08/24 12:33:23;;;;;;;12.02;5.05;;;;;;;;;;5058009;28;20087;-81
2023/08/24 12:35:49;;;;;;;9.23;5.50;;;;;;;;;;5065293;28;20025;-81
2023/08/24 12:38:15;;;;;;;13.15;5.53;;;;;;;;;;5067803;28;20561;-82
2023/08/24 12:40:41;;;;;;;11.13;5.82;;;;;;;;;;5055205;28;20124;-82
2023/08/24 12:43:07;;;;;;;11.15;5.40;;;;;;;;;;5065181;28;20033;-81
2023/08/24 12:45:33;;;;;;;8.75;5.10;;;;;;;;;;5047086;28;20048;-82
2023/08/24 12:47:59;;;;;;;10.32;5.65;;;;;;;;;;5050498;28;20032;-82
2023/08/24 12:50:25;;;;;;;7.70;5.68;;;;;;;;;;5059435;28;20096;-81
2023/08/24 12:52:57;;;;;;;8.98;4.70;;;;;;;;;;5068204;28;20028;-82
2023/08/24 12:55:23;;;;;;;8.48;4.78;;;;;;;;;;5061854;28;20033;-81
2023/08/24 12:57:49;;;;;;;12.32;6.53;;;;;;;;;;5048472;28;20539;-80
2023/08/24 13:00:15;;;;;;;13.23;5.85;;;;;;;;;;5059829;28;20413;-81
2023/08/24 13:02:42;;;;;;;21.15;5.68;;;;;;;;;;5044546;28;20380;-81
2023/08/24 13:05:08;;;;;;;7.78;5.32;;;;;;;;;;5055752;28;20021;-82
2023/08/24 13:07:34;;;;;;;11.05;5.80;;;;;;;;;;5054396;28;20032;-81
2023/08/24 13:10:00;;;;;;;12.27;5.70;;;;;;;;;;5066460;28;20043;-81
2023/08/24 13:12:26;;;;;;;12.50;5.55;;;;;;;;;;5064092;28;20465;-81
2023/08/24 13:14:52;;;;;;;13.02;5.10;;;;;;;;;;5057654;28;20036;-81
2023/08/24 13:17:18;;;;;;;14.20;6.18;;;;;;;;;;5062457;28;20151;-81
2023/08/24 13:19:45;;;;;;;10.73;5.13;;;;;;;;;;5054780;28;20067;-83
2023/08/24 13:22:11;;;;;;;10.98;5.68;;;;;;;;;;5046005;28;20024;-83
2023/08/24 13:24:39;;;;;;;14.63;5.82;;;;;;;;;;5050351;28;20469;-82
2023/08/24 13:27:10;;;;;;;13.85;5.22;;;;;;;;;;5071270;28;20016;-83
2023/08/24 13:29:36;;;;;;;14.88;6.25;;;;;;;;;;5049620;28;20024;-83
2023/08/24 13:32:02;;;;;;;9.77;5.32;;;;;;;;;;5066956;28;20029;-83
2023/08/24 13:34:28;;;;;;;10.90;4.65;;;;;;;;;;5058790;28;20493;-82
2023/08/24 13:36:54;;;;;;;11.23;6.10;;;;;;;;;;5046744;28;20028;-82
2023/08/24 13:39:21;;;;;;;8.15;5.95;;;;;;;;;;5072205;28;20033;-84
2023/08/24 13:41:47;;;;;;;16.27;5.20;;;;;;;;;;5066554;28;20029;-82
2023/08/24 13:44:13;;;;;;;13.48;5.50;;;;;;;;;;5072751;28;20479;-83
2023/08/24 13:46:39;;;;;;;13.10;5.45;;;;;;;;;;5064608;28;20044;-82
2023/08/24 13:49:05;;;;;;;9.07;5.97;;;;;;;;;;5066065;28;20631;-83
2023/08/24 13:51:31;;;;;;;15.00;5.70;;;;;;;;;;5048451;28;20058;-83
2023/08/24 13:53:57;;;;;;;16.42;5.43;;;;;;;;;;5060468;28;20025;-83
2023/08/24 13:56:23;;;;;;;14.75;5.20;;;;;;;;;;5047120;28;20157;-82
2023/08/24 13:58:49;;;;;;;15.18;6.40;;;;;;;;;;5065654;28;20025;-84
2023/08/24 14:01:15;;;;;;;13.80;5.50;;;;;;;;;;5052046;28;20025;-84
2023/08/24 14:03:43;;;;;;;14.27;5.85;;;;;;;;;;5066972;28;20619;-84
2023/08/24 14:06:10;;;;;;;10.32;5.47;;;;;;;;;;5064237;28;20025;-83
2023/08/24 14:08:36;;;;;;;10.07;5.65;;;;;;;;;;5062272;28;20021;-84
2023/08/24 14:11:02;;;;;;;10.30;5.93;;;;;;;;;;5064390;28;20036;-83
2023/08/24 14:13:30;;;;;;;12.52;6.85;;;;;;;;;;5064495;28;20045;-82
2023/08/24 14:15:56;;;;;;;16.25;6.13;;;;;;;;;;5062911;28;20017;-82
2023/08/24 14:18:22;;;;;;;15.05;5.80;;;;;;;;;;5066486;28;20035;-81
2023/08/24 14:20:49;;;;;;;10.13;5.97;;;;;;;;;;5065728;28;20072;-83
2023/08/24 14:23:15;;;;;;;12.88;5.82;;;;;;;;;;5063605;28;20123;-83
2023/08/24 14:25:41;;;;;;;13.25;5.93;;;;;;;;;;5063878;28;20099;-83
2023/08/24 14:28:07;;;;;;;20.60;5.47;;;;;;;;;;5062846;28;20491;-83
2023/08/24 14:30:32;;;;;;;12.52;5.38;;;;;;;;;;5046481;28;20016;-83
2023/08/24 14:32:58;;;;;;;10.20;5.47;;;;;;;;;;5068467;28;20036;-83
2023/08/24 14:35:24;;;;;;;16.25;5.97;;;;;;;;;;5063211;28;20025;-83